LGW weather

London Gatwick Airport
London, England, United Kingdom

Public forecast

Using degrees Celsius for public forecast. Weather courtesy of forecast.io.

METAR (pilot weather report)

Retrieved 2018/08/20 03:20 UTC (19 minutes ago):

EGKK 200320Z 26003KT 9999 BKN029 18/16 Q1020

TAF (pilot weather forecast)

Forecast is more than 12 hours old.

Retrieved 2018/08/19 00:16 UTC (1 day ago):

TAF EGKK 192251Z 2000/2106 22005KT 9999 SCT025 PROB30 TEMPO 2002/2008 5000 HZ BKN006 PROB30 TEMPO 2103/2106 3000 BR BKN004